createdAt,value
2022-08-26T00:01:30.611Z,25.70
2022-08-26T00:03:57.354Z,25.70
2022-08-26T00:06:24.767Z,25.70
2022-08-26T00:08:51.500Z,25.70
2022-08-26T00:11:26.663Z,25.60
2022-08-26T00:13:57.050Z,25.60
2022-08-26T00:16:25.825Z,25.60
2022-08-26T00:18:53.187Z,25.70
2022-08-26T00:21:20.004Z,25.80
2022-08-26T00:23:46.737Z,26.00
2022-08-26T00:26:13.647Z,26.10
2022-08-26T00:28:42.091Z,26.30
2022-08-26T00:31:10.960Z,26.40
2022-08-26T00:33:38.568Z,26.50
2022-08-26T00:36:05.979Z,26.50
2022-08-26T00:38:32.924Z,26.40
2022-08-26T00:40:59.725Z,26.40
2022-08-26T00:43:26.521Z,26.30
2022-08-26T00:45:57.063Z,26.20
2022-08-26T00:48:24.972Z,26.10
2022-08-26T00:50:56.770Z,26.10
2022-08-26T00:53:27.895Z,26.00
2022-08-26T00:55:56.673Z,26.00
2022-08-26T00:58:23.459Z,25.90
2022-08-26T01:00:50.243Z,25.90
2022-08-26T01:03:17.119Z,25.80
2022-08-26T01:05:43.851Z,25.80
2022-08-26T01:08:10.589Z,25.80
2022-08-26T01:10:37.284Z,25.80
2022-08-26T01:13:06.201Z,25.80
2022-08-26T01:15:35.850Z,25.80
2022-08-26T01:18:04.065Z,25.70
2022-08-26T01:20:43.102Z,25.70
2022-08-26T01:23:10.222Z,25.70
2022-08-26T01:25:39.203Z,25.60
2022-08-26T01:28:06.824Z,25.60
2022-08-26T01:30:33.850Z,25.60
2022-08-26T01:33:01.407Z,25.70
2022-08-26T01:35:29.397Z,25.80
2022-08-26T01:37:56.660Z,26.00
2022-08-26T01:40:26.143Z,26.10
2022-08-26T01:42:53.644Z,26.30
2022-08-26T01:45:25.216Z,26.40
2022-08-26T01:47:56.814Z,26.50
2022-08-26T01:50:30.253Z,26.50
2022-08-26T01:52:57.881Z,26.40
2022-08-26T01:55:29.309Z,26.40
2022-08-26T01:57:59.499Z,26.30
2022-08-26T02:00:26.747Z,26.20
2022-08-26T02:03:16.555Z,26.10
2022-08-26T02:05:44.817Z,26.10
2022-08-26T02:08:15.645Z,26.00
2022-08-26T02:10:51.304Z,26.00
2022-08-26T02:13:21.682Z,26.00
2022-08-26T02:15:49.396Z,25.90
2022-08-26T02:18:17.059Z,25.80
2022-08-26T02:20:44.319Z,25.80
2022-08-26T02:23:11.024Z,25.80
2022-08-26T02:25:37.707Z,25.80
2022-08-26T02:28:04.706Z,25.70
2022-08-26T02:30:32.256Z,25.70
2022-08-26T02:32:59.605Z,25.70
2022-08-26T02:35:26.441Z,25.70
2022-08-26T02:37:53.241Z,25.70
2022-08-26T02:40:21.723Z,25.60
2022-08-26T02:42:48.702Z,25.60
2022-08-26T02:45:23.185Z,25.60
2022-08-26T02:47:50.453Z,25.60
2022-08-26T02:50:17.159Z,25.70
2022-08-26T02:52:44.404Z,25.80
2022-08-26T02:55:11.292Z,25.90
2022-08-26T02:57:37.968Z,26.10
2022-08-26T03:00:05.509Z,26.20
2022-08-26T03:02:32.261Z,26.20
2022-08-26T03:05:02.037Z,26.40
2022-08-26T03:07:29.562Z,26.40
2022-08-26T03:09:57.175Z,26.40
2022-08-26T03:12:24.123Z,26.40
2022-08-26T03:14:52.594Z,26.30
2022-08-26T03:17:19.270Z,26.20
2022-08-26T03:19:45.944Z,26.20
2022-08-26T03:22:12.699Z,26.10
2022-08-26T03:24:41.451Z,26.10
2022-08-26T03:27:12.897Z,26.00
2022-08-26T03:29:59.897Z,25.90
2022-08-26T03:32:26.977Z,25.90
2022-08-26T03:34:54.288Z,25.80
2022-08-26T03:37:21.724Z,25.80
2022-08-26T03:39:48.633Z,25.80
2022-08-26T03:42:16.212Z,25.70
2022-08-26T03:44:42.925Z,25.70
2022-08-26T03:47:10.428Z,25.70
2022-08-26T03:49:37.189Z,25.60
2022-08-26T03:52:04.072Z,25.60
2022-08-26T03:54:30.770Z,25.60
2022-08-26T03:56:57.453Z,25.60
2022-08-26T03:59:24.184Z,25.60
2022-08-26T04:01:51.382Z,25.50
2022-08-26T04:04:22.729Z,25.50
2022-08-26T04:06:55.401Z,25.50
2022-08-26T04:09:22.101Z,25.50
2022-08-26T04:11:50.716Z,25.50
2022-08-26T04:14:21.611Z,25.50
2022-08-26T04:16:48.318Z,25.60
2022-08-26T04:19:15.212Z,25.70
2022-08-26T04:21:42.109Z,25.80
2022-08-26T04:24:12.106Z,26.00
2022-08-26T04:26:39.567Z,26.10
2022-08-26T04:29:12.060Z,26.20
2022-08-26T04:31:38.953Z,26.20
2022-08-26T04:34:06.014Z,26.20
2022-08-26T04:36:32.720Z,26.10
2022-08-26T04:39:00.748Z,26.10
2022-08-26T04:41:27.892Z,26.00
2022-08-26T04:43:58.305Z,25.70
2022-08-26T04:46:25.565Z,25.40
2022-08-26T04:48:53.012Z,25.20
2022-08-26T04:51:20.354Z,24.90
2022-08-26T04:53:47.212Z,24.70
2022-08-26T04:56:14.372Z,24.50
2022-08-26T04:58:41.965Z,24.30
2022-08-26T05:01:08.746Z,24.20
2022-08-26T05:03:36.318Z,24.10
2022-08-26T05:06:04.134Z,24.00
2022-08-26T05:08:31.186Z,24.00
2022-08-26T05:10:57.974Z,24.00
2022-08-26T05:13:26.571Z,24.10
2022-08-26T05:15:53.590Z,24.20
2022-08-26T05:18:22.827Z,24.40
2022-08-26T05:20:53.991Z,24.50
2022-08-26T05:23:22.976Z,24.60
2022-08-26T05:25:50.297Z,24.70
2022-08-26T05:28:17.511Z,24.80
2022-08-26T05:30:47.687Z,24.80
2022-08-26T05:33:14.577Z,24.80
2022-08-26T05:35:41.666Z,24.90
2022-08-26T05:38:12.622Z,24.90
2022-08-26T05:40:44.741Z,25.00
2022-08-26T05:43:11.905Z,25.00
2022-08-26T05:45:46.279Z,25.00
2022-08-26T05:48:13.834Z,25.00
2022-08-26T05:50:41.071Z,25.00
2022-08-26T05:53:10.093Z,25.10
2022-08-26T05:55:47.071Z,25.20
2022-08-26T05:58:13.837Z,25.30
2022-08-26T06:00:41.702Z,25.50
2022-08-26T06:03:09.513Z,25.70
2022-08-26T06:05:39.984Z,25.80
2022-08-26T06:08:16.040Z,26.00
2022-08-26T06:10:52.695Z,26.10
2022-08-26T06:13:20.218Z,26.20
2022-08-26T06:15:49.337Z,26.10
2022-08-26T06:18:18.140Z,26.00
2022-08-26T06:20:56.821Z,26.00
2022-08-26T06:23:43.544Z,25.90
2022-08-26T06:26:11.003Z,25.80
2022-08-26T06:28:38.043Z,25.70
2022-08-26T06:31:06.269Z,25.70
2022-08-26T06:33:33.392Z,25.60
2022-08-26T06:36:01.341Z,25.60
2022-08-26T06:38:28.439Z,25.60
2022-08-26T06:40:55.282Z,25.60
2022-08-26T06:43:22.822Z,25.50
2022-08-26T06:45:51.120Z,25.50
2022-08-26T06:48:18.692Z,25.50
2022-08-26T06:50:45.536Z,25.50
2022-08-26T06:53:13.489Z,25.40
2022-08-26T06:55:41.615Z,25.40
2022-08-26T06:58:09.639Z,25.40
2022-08-26T07:00:36.903Z,25.40
2022-08-26T07:03:05.365Z,25.40
2022-08-26T07:05:32.382Z,25.40
2022-08-26T07:07:59.456Z,25.40
2022-08-26T07:10:26.262Z,25.40
2022-08-26T07:12:54.110Z,25.40
2022-08-26T07:15:24.017Z,25.40
2022-08-26T07:18:00.484Z,25.60
2022-08-26T07:20:27.944Z,25.70
2022-08-26T07:22:54.741Z,25.90
2022-08-26T07:25:21.655Z,26.10
2022-08-26T07:27:54.083Z,26.20
2022-08-26T07:30:21.299Z,26.30
2022-08-26T07:32:48.456Z,26.40
2022-08-26T07:35:15.216Z,26.40
2022-08-26T07:37:43.040Z,26.30
2022-08-26T07:40:10.105Z,26.30
2022-08-26T07:42:36.951Z,26.20
2022-08-26T07:45:03.967Z,26.10
2022-08-26T07:47:31.235Z,26.10
2022-08-26T07:49:58.942Z,26.00
2022-08-26T07:52:27.443Z,26.00
2022-08-26T07:54:58.728Z,25.90
2022-08-26T07:57:26.325Z,25.90
2022-08-26T07:59:54.028Z,25.90
2022-08-26T08:02:22.061Z,25.80
2022-08-26T08:04:49.017Z,25.80
2022-08-26T08:07:15.828Z,25.80
2022-08-26T08:09:42.603Z,25.80
2022-08-26T08:12:14.284Z,25.70
2022-08-26T08:14:41.263Z,25.80
2022-08-26T08:17:09.209Z,25.70
2022-08-26T08:19:36.920Z,25.70
2022-08-26T08:22:11.363Z,25.70
2022-08-26T08:24:44.560Z,25.70
2022-08-26T08:27:11.267Z,25.70
2022-08-26T08:29:38.845Z,25.70
2022-08-26T08:32:05.774Z,25.70
2022-08-26T08:37:08.763Z,25.90
2022-08-26T08:39:38.096Z,26.10
2022-08-26T08:42:06.550Z,26.20
2022-08-26T08:44:33.844Z,26.30
2022-08-26T08:47:05.301Z,26.40
2022-08-26T08:49:32.934Z,26.60
2022-08-26T08:52:00.411Z,26.60
2022-08-26T08:54:29.325Z,26.50
2022-08-26T08:56:59.917Z,26.50
2022-08-26T08:59:38.438Z,26.40
2022-08-26T09:02:17.444Z,26.30
2022-08-26T09:04:44.785Z,26.20
2022-08-26T09:07:19.485Z,26.20
2022-08-26T09:09:50.420Z,26.10
2022-08-26T09:12:29.650Z,26.10
2022-08-26T09:15:06.093Z,26.10
2022-08-26T09:17:38.306Z,26.00
2022-08-26T09:20:14.784Z,26.00
2022-08-26T09:22:44.259Z,25.90
2022-08-26T09:25:12.286Z,26.00
2022-08-26T09:27:47.194Z,25.90
2022-08-26T09:30:25.551Z,25.80
2022-08-26T09:33:00.816Z,25.90
2022-08-26T09:35:32.361Z,25.80
2022-08-26T09:38:00.626Z,25.80
2022-08-26T09:40:34.965Z,25.80
2022-08-26T09:43:21.985Z,25.80
2022-08-26T09:45:59.249Z,25.80
2022-08-26T09:48:28.972Z,26.00
2022-08-26T09:50:58.462Z,26.10
2022-08-26T09:53:37.692Z,26.30
2022-08-26T09:56:37.449Z,26.40
2022-08-26T09:59:04.625Z,26.60
2022-08-26T10:01:36.063Z,26.70
2022-08-26T10:04:06.335Z,26.70
2022-08-26T10:06:38.914Z,26.60
2022-08-26T10:09:08.941Z,26.60
2022-08-26T10:11:40.795Z,26.50
2022-08-26T10:14:11.911Z,26.40
2022-08-26T10:16:39.566Z,26.30
2022-08-26T10:19:10.893Z,26.30
2022-08-26T10:21:58.405Z,26.20
2022-08-26T10:24:31.880Z,26.20
2022-08-26T10:27:12.145Z,26.10
2022-08-26T10:29:59.453Z,26.20
2022-08-26T10:32:28.809Z,26.10
2022-08-26T10:34:57.997Z,26.10
2022-08-26T10:37:26.434Z,26.00
2022-08-26T10:39:58.453Z,26.00
2022-08-26T10:42:37.458Z,26.00
2022-08-26T10:45:07.680Z,26.10
2022-08-26T10:47:49.978Z,26.10
2022-08-26T10:50:18.278Z,26.30
2022-08-26T10:53:12.114Z,26.40
2022-08-26T10:55:40.112Z,26.60
2022-08-26T10:58:08.905Z,26.70
2022-08-26T11:01:00.233Z,26.80
2022-08-26T11:03:37.190Z,26.90
2022-08-26T11:06:20.463Z,26.80
2022-08-26T11:08:48.945Z,26.70
2022-08-26T11:11:35.405Z,26.70
2022-08-26T11:14:04.694Z,26.60
2022-08-26T11:16:33.949Z,26.50
2022-08-26T11:19:02.556Z,26.40
2022-08-26T11:21:49.575Z,26.40
2022-08-26T11:24:37.643Z,26.30
2022-08-26T11:27:05.624Z,26.30
2022-08-26T11:29:53.418Z,26.30
2022-08-26T11:32:25.406Z,26.20
2022-08-26T11:34:57.187Z,26.20
2022-08-26T11:37:26.881Z,26.20
2022-08-26T11:39:55.392Z,26.10
2022-08-26T11:42:29.401Z,26.10
2022-08-26T11:44:58.060Z,26.10
2022-08-26T11:47:26.849Z,26.10
2022-08-26T11:50:14.618Z,26.30
2022-08-26T11:52:42.318Z,26.40
2022-08-26T11:55:12.422Z,26.60
2022-08-26T11:57:43.224Z,26.70
2022-08-26T12:00:15.869Z,26.80
2022-08-26T12:02:48.906Z,27.00
2022-08-26T12:05:25.256Z,27.00
2022-08-26T12:07:55.263Z,26.90
2022-08-26T12:10:33.294Z,26.80
2022-08-26T12:13:02.107Z,26.70
2022-08-26T12:15:30.819Z,26.70
2022-08-26T12:18:00.879Z,26.60
2022-08-26T12:20:49.142Z,26.50
2022-08-26T12:23:22.982Z,26.50
2022-08-26T12:25:51.901Z,26.40
2022-08-26T12:28:20.247Z,26.40
2022-08-26T12:31:01.024Z,26.40
2022-08-26T12:33:28.251Z,26.30
2022-08-26T12:35:56.687Z,26.30
2022-08-26T12:38:24.038Z,26.30
2022-08-26T12:40:50.751Z,26.30
2022-08-26T12:43:36.389Z,26.20
2022-08-26T12:46:06.818Z,26.20
2022-08-26T12:48:35.897Z,26.20
2022-08-26T12:51:06.866Z,26.40
2022-08-26T12:53:34.396Z,26.50
2022-08-26T12:56:05.226Z,26.70
2022-08-26T12:58:38.149Z,26.70
2022-08-26T13:01:05.188Z,26.90
2022-08-26T13:03:35.100Z,27.00
2022-08-26T13:06:08.943Z,27.10
2022-08-26T13:08:52.918Z,27.10
2022-08-26T13:11:20.779Z,27.00
2022-08-26T13:13:53.599Z,26.80
2022-08-26T13:16:20.846Z,26.80
2022-08-26T13:18:49.129Z,26.70
2022-08-26T13:21:19.867Z,26.60
2022-08-26T13:23:46.895Z,26.60
2022-08-26T13:26:13.702Z,26.50
2022-08-26T13:28:40.399Z,26.50
2022-08-26T13:31:07.135Z,26.40
2022-08-26T13:33:34.182Z,26.40
2022-08-26T13:36:00.864Z,26.40
2022-08-26T13:38:33.285Z,26.40
2022-08-26T13:41:00.891Z,26.30
2022-08-26T13:43:28.092Z,26.30
2022-08-26T13:45:54.866Z,26.30
2022-08-26T13:48:23.319Z,26.40
2022-08-26T13:50:50.856Z,26.50
2022-08-26T13:53:18.781Z,26.60
2022-08-26T13:55:45.563Z,26.70
2022-08-26T13:58:12.438Z,26.90
2022-08-26T14:00:39.710Z,27.00
2022-08-26T14:03:10.152Z,27.10
2022-08-26T14:05:39.364Z,27.10
2022-08-26T14:08:07.499Z,27.10
2022-08-26T14:10:34.390Z,27.00
2022-08-26T14:13:01.146Z,26.90
2022-08-26T14:15:28.057Z,26.80
2022-08-26T14:17:55.844Z,26.80
2022-08-26T14:20:28.030Z,26.70
2022-08-26T14:23:12.985Z,26.60
2022-08-26T14:25:40.599Z,26.60
2022-08-26T14:28:07.600Z,26.50
2022-08-26T14:30:34.384Z,26.50
2022-08-26T14:33:01.157Z,26.40
2022-08-26T14:35:28.614Z,26.40
2022-08-26T14:37:55.393Z,26.40
2022-08-26T14:40:22.317Z,26.40
2022-08-26T14:42:52.732Z,26.40
2022-08-26T14:45:21.832Z,26.30
2022-08-26T14:47:49.472Z,26.30
2022-08-26T14:50:20.705Z,26.30
2022-08-26T14:53:06.348Z,26.40
2022-08-26T14:55:35.197Z,26.50
2022-08-26T14:58:06.564Z,26.70
2022-08-26T15:00:39.032Z,26.70
2022-08-26T15:03:05.953Z,26.60
2022-08-26T15:05:33.367Z,26.40
2022-08-26T15:08:00.449Z,26.30
2022-08-26T15:10:27.255Z,26.20
2022-08-26T15:12:54.085Z,26.10
2022-08-26T15:15:20.967Z,26.00
2022-08-26T15:17:47.675Z,26.00
2022-08-26T15:20:16.634Z,25.80
2022-08-26T15:22:43.439Z,25.80
2022-08-26T15:25:10.414Z,25.70
2022-08-26T15:27:37.196Z,25.60
2022-08-26T15:30:07.580Z,25.60
2022-08-26T15:32:34.363Z,25.60
2022-08-26T15:35:03.522Z,25.60
2022-08-26T15:37:32.590Z,25.50
2022-08-26T15:39:59.315Z,25.50
2022-08-26T15:42:26.074Z,25.40
2022-08-26T15:44:52.931Z,25.40
2022-08-26T15:47:19.926Z,25.40
2022-08-26T15:49:46.694Z,25.40
2022-08-26T15:52:13.446Z,25.60
2022-08-26T15:54:40.183Z,25.70
2022-08-26T15:57:10.819Z,25.80
2022-08-26T15:59:38.341Z,26.00
2022-08-26T16:02:05.587Z,26.10
2022-08-26T16:04:32.350Z,26.00
2022-08-26T16:06:59.266Z,25.90
2022-08-26T16:09:27.226Z,25.80
2022-08-26T16:11:54.478Z,25.80
2022-08-26T16:14:21.195Z,25.60
2022-08-26T16:16:48.067Z,25.50
2022-08-26T16:19:15.436Z,25.50
2022-08-26T16:21:42.295Z,25.40
2022-08-26T16:24:08.980Z,25.30
2022-08-26T16:26:36.312Z,25.30
2022-08-26T16:29:04.122Z,25.20
2022-08-26T16:31:31.157Z,25.20
2022-08-26T16:33:57.915Z,25.20
2022-08-26T16:36:24.662Z,25.10
2022-08-26T16:38:55.187Z,25.10
2022-08-26T16:41:25.999Z,25.00
2022-08-26T16:43:52.994Z,25.00
2022-08-26T16:46:22.180Z,25.00
2022-08-26T16:48:48.986Z,24.90
2022-08-26T16:51:16.757Z,24.90
2022-08-26T16:53:43.853Z,25.00
2022-08-26T16:56:14.356Z,25.10
2022-08-26T16:58:41.155Z,25.20
2022-08-26T17:01:08.277Z,25.40
2022-08-26T17:03:34.998Z,25.50
2022-08-26T17:06:02.853Z,25.60
2022-08-26T17:08:30.411Z,25.60
2022-08-26T17:10:58.854Z,25.60
2022-08-26T17:13:35.186Z,25.40
2022-08-26T17:16:04.277Z,25.30
2022-08-26T17:18:31.204Z,25.20
2022-08-26T17:21:00.156Z,25.20
2022-08-26T17:23:26.858Z,25.10
2022-08-26T17:25:53.606Z,25.00
2022-08-26T17:28:21.307Z,25.00
2022-08-26T17:30:48.049Z,25.00
2022-08-26T17:33:14.887Z,25.00
2022-08-26T17:35:43.931Z,24.90
2022-08-26T17:38:10.769Z,24.90
2022-08-26T17:40:37.815Z,24.90
2022-08-26T17:43:12.076Z,24.90
2022-08-26T17:45:39.904Z,24.80
2022-08-26T17:48:08.401Z,24.80
2022-08-26T17:50:36.686Z,24.80
2022-08-26T17:53:03.427Z,24.80
2022-08-26T17:55:30.309Z,24.80
2022-08-26T17:57:57.086Z,24.80
2022-08-26T18:00:26.455Z,25.00
2022-08-26T18:02:55.675Z,25.10
2022-08-26T18:05:22.599Z,25.20
2022-08-26T18:07:49.407Z,25.40
2022-08-26T18:10:17.616Z,25.50
2022-08-26T18:12:44.635Z,25.50
2022-08-26T18:15:11.921Z,25.40
2022-08-26T18:17:39.505Z,25.50
2022-08-26T18:20:07.842Z,25.50
2022-08-26T18:22:34.982Z,25.50
2022-08-26T18:25:02.008Z,25.60
2022-08-26T18:27:28.925Z,25.60
2022-08-26T18:29:55.960Z,25.60
2022-08-26T18:32:22.676Z,25.60
2022-08-26T18:34:49.489Z,25.60
2022-08-26T18:37:16.761Z,25.60
2022-08-26T18:39:43.510Z,25.60
2022-08-26T18:42:10.385Z,25.60
2022-08-26T18:44:37.138Z,25.60
2022-08-26T18:47:04.446Z,25.60
2022-08-26T18:49:31.158Z,25.60
2022-08-26T18:51:57.854Z,25.60
2022-08-26T18:54:24.654Z,25.60
2022-08-26T18:56:51.841Z,25.60
2022-08-26T18:59:18.595Z,25.60
2022-08-26T19:01:45.563Z,25.60
2022-08-26T19:04:14.067Z,25.70
2022-08-26T19:06:42.597Z,25.80
2022-08-26T19:09:09.706Z,26.00
2022-08-26T19:11:42.774Z,26.10
2022-08-26T19:14:10.927Z,26.20
2022-08-26T19:16:38.937Z,26.40
2022-08-26T19:19:05.862Z,26.40
2022-08-26T19:21:33.177Z,26.30
2022-08-26T19:24:01.023Z,26.30
2022-08-26T19:26:28.004Z,26.20
2022-08-26T19:28:55.193Z,26.10
2022-08-26T19:31:21.963Z,26.10
2022-08-26T19:33:48.734Z,26.00
2022-08-26T19:36:16.832Z,26.00
2022-08-26T19:38:44.098Z,26.00
2022-08-26T19:41:12.059Z,25.90
2022-08-26T19:43:38.772Z,25.90
2022-08-26T19:46:15.204Z,25.80
2022-08-26T19:48:44.979Z,25.80
2022-08-26T19:51:15.765Z,25.80
2022-08-26T19:53:43.754Z,25.80
2022-08-26T19:56:10.750Z,25.80
2022-08-26T19:58:37.516Z,25.80
2022-08-26T20:01:04.850Z,25.80
2022-08-26T20:03:32.549Z,25.80
2022-08-26T20:05:59.663Z,25.80
2022-08-26T20:08:26.554Z,25.80
2022-08-26T20:10:54.061Z,25.80
2022-08-26T20:13:22.017Z,25.80
2022-08-26T20:15:48.979Z,25.80
2022-08-26T20:18:34.472Z,25.80
2022-08-26T20:21:20.126Z,25.90
2022-08-26T20:23:47.311Z,26.10
2022-08-26T20:26:14.329Z,26.30
2022-08-26T20:28:41.125Z,26.40
2022-08-26T20:31:08.296Z,26.50
2022-08-26T20:33:46.325Z,26.60
2022-08-26T20:36:14.013Z,26.50
2022-08-26T20:38:41.010Z,26.40
2022-08-26T20:41:07.863Z,26.40
2022-08-26T20:43:35.265Z,26.30
2022-08-26T20:46:02.326Z,26.20
2022-08-26T20:48:34.982Z,26.10
2022-08-26T20:51:01.728Z,26.10
2022-08-26T20:53:28.773Z,26.00
2022-08-26T20:55:59.061Z,26.00
2022-08-26T20:58:25.761Z,26.00
2022-08-26T21:00:52.606Z,25.90
2022-08-26T21:03:19.436Z,25.90
2022-08-26T21:05:46.422Z,25.90
2022-08-26T21:08:13.247Z,25.80
2022-08-26T21:10:40.454Z,25.80
2022-08-26T21:13:07.225Z,25.80
2022-08-26T21:15:35.375Z,25.80
2022-08-26T21:18:03.391Z,25.80
2022-08-26T21:20:30.753Z,25.80
2022-08-26T21:22:57.537Z,25.80
2022-08-26T21:25:24.515Z,25.70
2022-08-26T21:27:51.261Z,25.70
2022-08-26T21:30:17.991Z,25.70
2022-08-26T21:32:44.723Z,25.70
2022-08-26T21:35:11.415Z,25.70
2022-08-26T21:37:38.132Z,25.80
2022-08-26T21:40:05.586Z,26.00
2022-08-26T21:42:33.066Z,26.10
2022-08-26T21:45:00.004Z,26.30
2022-08-26T21:47:26.780Z,26.40
2022-08-26T21:49:53.632Z,26.50
2022-08-26T21:52:21.284Z,26.50
2022-08-26T21:54:49.279Z,26.40
2022-08-26T21:57:16.729Z,26.40
2022-08-26T21:59:43.435Z,26.30
2022-08-26T22:02:11.152Z,26.20
2022-08-26T22:04:37.967Z,26.10
2022-08-26T22:07:05.038Z,26.10
2022-08-26T22:09:31.824Z,26.00
2022-08-26T22:11:58.733Z,26.00
2022-08-26T22:14:30.705Z,26.00
2022-08-26T22:16:57.803Z,25.90
2022-08-26T22:19:24.571Z,25.90
2022-08-26T22:21:52.979Z,25.80
2022-08-26T22:24:20.694Z,25.80
2022-08-26T22:26:47.439Z,25.80
2022-08-26T22:29:14.617Z,25.80
2022-08-26T22:31:41.882Z,25.80
2022-08-26T22:34:09.542Z,25.80
2022-08-26T22:36:43.057Z,25.70
2022-08-26T22:39:11.522Z,25.70
2022-08-26T22:41:38.249Z,25.70
2022-08-26T22:44:04.960Z,25.60
2022-08-26T22:46:34.828Z,25.60
2022-08-26T22:49:06.049Z,25.60
2022-08-26T22:51:34.509Z,25.60
2022-08-26T22:54:01.479Z,25.70
2022-08-26T22:56:28.176Z,25.80
2022-08-26T22:58:54.880Z,25.90
2022-08-26T23:01:21.639Z,26.10
2022-08-26T23:03:48.516Z,26.20
2022-08-26T23:06:15.401Z,26.30
2022-08-26T23:08:42.098Z,26.40
2022-08-26T23:11:09.542Z,26.40
2022-08-26T23:13:36.517Z,26.30
2022-08-26T23:16:04.257Z,26.30
2022-08-26T23:18:30.970Z,26.20
2022-08-26T23:20:57.734Z,26.10
2022-08-26T23:23:24.640Z,26.10
2022-08-26T23:25:51.333Z,26.00
2022-08-26T23:28:18.091Z,25.90
2022-08-26T23:30:44.775Z,25.90
2022-08-26T23:33:11.484Z,25.90
2022-08-26T23:35:38.244Z,25.80
2022-08-26T23:38:09.917Z,25.80
2022-08-26T23:40:38.808Z,25.80
2022-08-26T23:43:06.895Z,25.70
2022-08-26T23:45:33.856Z,25.70
2022-08-26T23:48:00.664Z,25.70
2022-08-26T23:50:46.833Z,25.70
2022-08-26T23:53:19.385Z,25.60
2022-08-26T23:55:50.661Z,25.60
2022-08-26T23:58:17.830Z,25.60
